Time;durP1;ratioP1;P1;durP2;ratioP2;P2;SDS_P1;SDS_P2;PMS_P1;PMS_P2;Temp;Humidity;BMP_temperature;BMP_pressure;BME280_temperature;BME280_humidity;BME280_pressure;Samples;Min_cycle;Max_cycle;Signal;HPM_P1;HPM_P2
2024/01/06 00:01:35;;;;;;;10.90;9.20;;;7.50;99.90;;;;;;5048587;28;20483;-81
2024/01/06 00:04:02;;;;;;;10.33;9.33;;;7.60;99.90;;;;;;5054525;28;20485;-81
2024/01/06 00:06:28;;;;;;;11.43;9.53;;;7.70;99.90;;;;;;5055294;28;20464;-81
2024/01/06 00:08:55;;;;;;;10.77;9.40;;;7.70;99.90;;;;;;5056034;28;20548;-81
2024/01/06 00:11:23;;;;;;;11.30;9.27;;;7.70;99.90;;;;;;5064389;28;20468;-81
2024/01/06 00:13:50;;;;;;;12.40;9.83;;;7.70;99.90;;;;;;5062304;28;20464;-80
2024/01/06 00:16:19;;;;;;;13.87;10.70;;;7.60;99.90;;;;;;5060639;28;20454;-81
2024/01/06 00:18:46;;;;;;;12.57;10.20;;;7.60;99.90;;;;;;5066736;28;20913;-80
2024/01/06 00:21:13;;;;;;;14.93;10.40;;;7.60;99.90;;;;;;5057153;28;20546;-80
2024/01/06 00:23:41;;;;;;;13.40;10.60;;;7.60;99.90;;;;;;5065086;28;20510;-81
2024/01/06 00:26:08;;;;;;;11.47;10.27;;;7.60;99.90;;;;;;5056978;28;20493;-80
2024/01/06 00:28:35;;;;;;;12.00;10.17;;;7.60;99.90;;;;;;5056747;28;20905;-81
2024/01/06 00:31:02;;;;;;;12.87;9.80;;;7.60;99.90;;;;;;5059927;28;20945;-81
2024/01/06 00:33:30;;;;;;;13.17;11.07;;;7.60;99.90;;;;;;5059367;28;20526;-81
2024/01/06 00:35:57;;;;;;;14.07;10.90;;;7.60;99.90;;;;;;5059097;28;20560;-82
2024/01/06 00:38:24;;;;;;;12.27;10.80;;;7.50;99.90;;;;;;5058394;28;20848;-80
2024/01/06 00:40:50;;;;;;;12.17;10.70;;;7.50;99.90;;;;;;5059016;28;20463;-82
2024/01/06 00:43:17;;;;;;;13.03;10.53;;;7.60;99.90;;;;;;5058665;28;20487;-81
2024/01/06 00:45:44;;;;;;;13.73;10.30;;;7.60;99.90;;;;;;5058838;28;20524;-80
2024/01/06 00:48:11;;;;;;;12.80;10.47;;;7.60;99.90;;;;;;5057691;28;20941;-81
2024/01/06 00:50:39;;;;;;;11.50;9.90;;;7.70;99.90;;;;;;5050614;28;20529;-82
2024/01/06 00:53:06;;;;;;;13.83;10.07;;;7.70;99.90;;;;;;5059267;28;20487;-82
2024/01/06 00:55:33;;;;;;;11.73;9.67;;;7.70;99.90;;;;;;5068650;28;20464;-81
2024/01/06 00:57:59;;;;;;;10.13;9.10;;;7.70;99.90;;;;;;5072787;28;20550;-81
2024/01/06 01:00:27;;;;;;;15.17;10.43;;;7.70;99.90;;;;;;5065790;28;20468;-81
2024/01/06 01:02:53;;;;;;;13.90;10.20;;;7.70;99.90;;;;;;5057501;28;20537;-81
2024/01/06 01:05:20;;;;;;;11.87;9.13;;;7.70;99.90;;;;;;5065948;28;20490;-80
2024/01/06 01:07:49;;;;;;;13.13;11.13;;;7.70;99.90;;;;;;5058134;28;20462;-81
2024/01/06 01:10:15;;;;;;;12.53;9.93;;;7.70;99.90;;;;;;5057702;28;20453;-80
2024/01/06 01:12:42;;;;;;;14.30;10.63;;;7.70;99.90;;;;;;5063794;28;20750;-80
2024/01/06 01:15:09;;;;;;;12.00;10.30;;;7.70;99.90;;;;;;5057526;28;20495;-80
2024/01/06 01:17:37;;;;;;;12.93;10.17;;;7.70;99.90;;;;;;5056343;28;20540;-80
2024/01/06 01:20:04;;;;;;;18.10;11.63;;;7.70;99.90;;;;;;5056772;28;20465;-81
2024/01/06 01:22:31;;;;;;;13.10;10.80;;;7.70;99.90;;;;;;5058347;28;20563;-80
2024/01/06 01:25:05;;;;;;;16.67;12.17;;;7.70;99.90;;;;;;5062913;28;21031;-81
2024/01/06 01:27:31;;;;;;;16.03;12.87;;;7.80;99.90;;;;;;5064988;28;20493;-80
2024/01/06 01:29:58;;;;;;;16.30;12.53;;;7.80;99.90;;;;;;5057348;28;20481;-80
2024/01/06 01:32:25;;;;;;;16.13;12.73;;;7.80;99.90;;;;;;5055580;28;20570;-81
2024/01/06 01:34:52;;;;;;;15.63;12.00;;;7.80;99.90;;;;;;5057793;28;20455;-80
2024/01/06 01:37:19;;;;;;;12.40;10.90;;;7.80;99.90;;;;;;5062287;28;20463;-80
2024/01/06 01:39:46;;;;;;;14.50;11.60;;;7.80;99.90;;;;;;5064514;28;20549;-81
2024/01/06 01:42:14;;;;;;;16.80;12.80;;;7.80;99.90;;;;;;5055187;28;20579;-81
2024/01/06 01:44:41;;;;;;;12.57;10.30;;;7.80;99.90;;;;;;5051214;28;20485;-80
2024/01/06 01:47:08;;;;;;;15.90;12.03;;;7.80;99.90;;;;;;5055574;28;20463;-81
2024/01/06 01:49:36;;;;;;;13.23;10.53;;;7.80;99.90;;;;;;5057242;28;20473;-80
2024/01/06 01:52:03;;;;;;;13.13;10.60;;;7.80;99.90;;;;;;5056303;28;20900;-80
2024/01/06 01:54:30;;;;;;;14.57;11.00;;;7.80;99.90;;;;;;5056868;28;21075;-82
2024/01/06 01:56:56;;;;;;;12.77;10.77;;;7.80;99.90;;;;;;5057827;28;20531;-80
2024/01/06 01:59:25;;;;;;;15.30;10.30;;;7.70;99.90;;;;;;5057762;28;20454;-81
2024/01/06 02:01:52;;;;;;;12.70;10.00;;;7.70;99.90;;;;;;5058913;28;20512;-81
2024/01/06 02:04:19;;;;;;;15.07;11.07;;;7.70;99.90;;;;;;5057470;28;20561;-81
2024/01/06 02:06:46;;;;;;;14.23;10.80;;;7.80;99.90;;;;;;5061771;28;20446;-81
2024/01/06 02:09:13;;;;;;;13.13;11.03;;;7.80;99.90;;;;;;5063516;28;20484;-81
2024/01/06 02:11:39;;;;;;;14.07;10.73;;;7.80;99.90;;;;;;5057903;28;20488;-80
2024/01/06 02:14:06;;;;;;;15.70;11.53;;;7.70;99.90;;;;;;5066818;28;20472;-80
2024/01/06 02:16:37;;;;;;;18.07;12.37;;;7.70;99.90;;;;;;5058119;28;20549;-80
2024/01/06 02:19:04;;;;;;;16.80;12.67;;;7.70;99.90;;;;;;5058329;28;20473;-81
2024/01/06 02:21:35;;;;;;;18.63;13.00;;;7.70;99.90;;;;;;5058205;28;20483;-80
2024/01/06 02:24:03;;;;;;;16.27;12.33;;;7.70;99.90;;;;;;5052700;28;20468;-81
2024/01/06 02:26:30;;;;;;;15.57;13.10;;;7.70;99.90;;;;;;5056531;28;20541;-81
2024/01/06 02:28:57;;;;;;;16.40;11.97;;;7.70;99.90;;;;;;5058489;28;20467;-79
2024/01/06 02:31:24;;;;;;;17.67;14.20;;;7.70;99.90;;;;;;5056750;28;20865;-80
2024/01/06 02:33:50;;;;;;;15.30;12.47;;;7.60;99.90;;;;;;5054911;28;20452;-82
2024/01/06 02:36:17;;;;;;;18.00;14.00;;;7.70;99.90;;;;;;5055806;28;20961;-82
2024/01/06 02:38:44;;;;;;;26.40;18.43;;;7.70;99.90;;;;;;5057050;28;20895;-80
2024/01/06 02:41:12;;;;;;;39.40;24.17;;;7.60;99.90;;;;;;5056507;28;20554;-82
2024/01/06 02:43:39;;;;;;;28.23;19.47;;;7.60;99.90;;;;;;5056733;28;21008;-81
2024/01/06 02:46:07;;;;;;;20.23;14.90;;;7.70;99.90;;;;;;5057557;28;20493;-81
2024/01/06 02:48:34;;;;;;;22.60;15.37;;;7.60;99.90;;;;;;5056604;28;20483;-80
2024/01/06 02:51:01;;;;;;;24.70;17.40;;;7.70;99.90;;;;;;5056863;28;20454;-82
2024/01/06 02:53:28;;;;;;;23.67;16.57;;;7.60;99.90;;;;;;5057586;28;20864;-81
2024/01/06 02:55:54;;;;;;;23.50;17.23;;;7.70;99.90;;;;;;5056189;28;20450;-82
2024/01/06 02:58:25;;;;;;;22.03;16.70;;;7.70;99.90;;;;;;5056704;28;20469;-81
2024/01/06 03:00:52;;;;;;;26.60;16.73;;;7.60;99.90;;;;;;5050153;28;20471;-81
2024/01/06 03:03:19;;;;;;;25.13;17.13;;;7.70;99.90;;;;;;5055557;28;20991;-79
2024/01/06 03:05:48;;;;;;;28.43;19.13;;;7.70;99.90;;;;;;5055867;28;20469;-80
2024/01/06 03:08:15;;;;;;;24.47;16.37;;;7.70;99.90;;;;;;5057145;28;20486;-81
2024/01/06 03:10:42;;;;;;;22.37;14.37;;;7.60;99.90;;;;;;5056830;28;21047;-81
2024/01/06 03:13:09;;;;;;;22.57;12.73;;;7.60;99.90;;;;;;5056667;28;21009;-82
2024/01/06 03:15:38;;;;;;;22.97;12.63;;;7.40;99.90;;;;;;5077069;28;20471;-82
2024/01/06 03:18:05;;;;;;;17.53;11.90;;;7.30;99.90;;;;;;5074617;28;20534;-80
2024/01/06 03:20:32;;;;;;;16.13;10.90;;;7.30;99.90;;;;;;5068398;28;20458;-81
2024/01/06 03:22:58;;;;;;;17.00;11.00;;;7.20;99.90;;;;;;5068309;28;20506;-81
2024/01/06 03:25:25;;;;;;;17.90;11.83;;;7.20;99.90;;;;;;5067080;28;20495;-79
2024/01/06 03:27:52;;;;;;;21.63;12.20;;;7.20;99.90;;;;;;5065878;28;20457;-81
2024/01/06 03:30:19;;;;;;;18.33;11.67;;;7.10;99.90;;;;;;5061246;28;20463;-82
2024/01/06 03:32:47;;;;;;;19.07;10.80;;;7.10;99.90;;;;;;5060424;28;20985;-81
2024/01/06 03:35:15;;;;;;;17.63;10.70;;;7.10;99.90;;;;;;5060657;28;20467;-81
2024/01/06 03:37:42;;;;;;;19.33;11.20;;;7.10;99.90;;;;;;5057695;28;20551;-82
2024/01/06 03:40:10;;;;;;;17.90;12.43;;;7.00;99.90;;;;;;5058360;28;20582;-82
2024/01/06 03:42:37;;;;;;;15.53;9.73;;;7.00;99.90;;;;;;5057824;28;20531;-82
2024/01/06 03:45:04;;;;;;;17.17;10.73;;;7.00;99.90;;;;;;5056990;28;20832;-80
2024/01/06 03:47:31;;;;;;;21.10;10.67;;;7.10;99.90;;;;;;5066304;28;20512;-82
2024/01/06 03:49:59;;;;;;;15.77;10.30;;;7.10;99.90;;;;;;5057794;28;20446;-82
2024/01/06 03:52:26;;;;;;;16.10;9.60;;;7.10;99.90;;;;;;5058239;28;20469;-82
2024/01/06 03:54:53;;;;;;;17.30;11.70;;;7.10;99.90;;;;;;5057463;28;20454;-82
2024/01/06 03:57:19;;;;;;;14.90;10.87;;;7.10;99.90;;;;;;5057714;28;20551;-81
2024/01/06 03:59:46;;;;;;;14.63;10.20;;;7.00;99.90;;;;;;5056517;28;20453;-82
2024/01/06 04:02:13;;;;;;;14.30;9.47;;;7.10;99.90;;;;;;5055005;28;20476;-82
2024/01/06 04:04:40;;;;;;;15.10;9.60;;;7.10;99.90;;;;;;5057494;28;20895;-81
2024/01/06 04:07:08;;;;;;;15.87;10.63;;;7.10;99.90;;;;;;5057620;28;20444;-82
2024/01/06 04:09:35;;;;;;;18.07;11.90;;;7.10;99.90;;;;;;5056967;28;21070;-80
2024/01/06 04:12:02;;;;;;;16.00;10.57;;;7.10;99.90;;;;;;5057404;28;20845;-80
2024/01/06 04:14:28;;;;;;;15.10;10.10;;;7.10;99.90;;;;;;5056838;28;20455;-82
2024/01/06 04:16:56;;;;;;;17.47;10.40;;;6.90;99.90;;;;;;5058203;28;20454;-81
2024/01/06 04:19:23;;;;;;;15.70;10.80;;;6.90;99.90;;;;;;5057374;28;20456;-81
2024/01/06 04:21:50;;;;;;;15.30;9.37;;;7.00;99.90;;;;;;5057130;28;20483;-82
2024/01/06 04:24:18;;;;;;;15.47;9.37;;;6.90;99.90;;;;;;5056941;28;21034;-82
2024/01/06 04:26:45;;;;;;;14.00;9.43;;;6.80;99.90;;;;;;5057011;28;20487;-81
2024/01/06 04:29:12;;;;;;;12.30;7.50;;;6.70;99.90;;;;;;5061647;28;20460;-79
2024/01/06 04:31:39;;;;;;;11.33;7.57;;;6.70;99.90;;;;;;5072074;28;20494;-79
2024/01/06 04:34:06;;;;;;;14.87;8.93;;;6.70;99.90;;;;;;5069785;28;21019;-79
2024/01/06 04:36:33;;;;;;;15.17;8.60;;;6.70;99.90;;;;;;5060432;28;20542;-81
2024/01/06 04:38:59;;;;;;;16.27;9.17;;;6.70;99.90;;;;;;5062764;28;21283;-81
2024/01/06 04:41:28;;;;;;;13.20;8.80;;;6.70;99.90;;;;;;5055689;28;20456;-81
2024/01/06 04:43:54;;;;;;;15.20;8.60;;;6.70;99.90;;;;;;5056420;28;20539;-81
2024/01/06 04:46:21;;;;;;;13.10;8.23;;;6.70;99.90;;;;;;5056250;28;20517;-81
2024/01/06 04:48:48;;;;;;;16.83;9.37;;;6.70;99.90;;;;;;5064959;28;20840;-80
2024/01/06 04:51:15;;;;;;;13.30;9.40;;;6.70;99.90;;;;;;5064398;28;20474;-82
2024/01/06 04:53:42;;;;;;;14.10;8.70;;;6.70;99.90;;;;;;5055957;28;20452;-80
2024/01/06 04:56:09;;;;;;;16.00;8.93;;;6.70;99.90;;;;;;5063217;28;20455;-82
2024/01/06 04:58:37;;;;;;;14.67;9.00;;;6.60;99.90;;;;;;5060839;28;20456;-82
2024/01/06 05:01:04;;;;;;;15.20;9.90;;;6.60;99.90;;;;;;5059443;28;20462;-81
2024/01/06 05:03:31;;;;;;;16.00;10.10;;;6.60;99.90;;;;;;5059710;28;20574;-81
2024/01/06 05:05:57;;;;;;;12.70;8.63;;;6.60;99.90;;;;;;5060426;28;20975;-81
2024/01/06 05:08:24;;;;;;;13.93;9.00;;;6.40;99.90;;;;;;5068367;28;20455;-80
2024/01/06 05:10:53;;;;;;;13.70;9.33;;;6.40;99.90;;;;;;5061121;28;20452;-80
2024/01/06 05:13:20;;;;;;;15.90;8.97;;;6.40;99.90;;;;;;5066647;28;20479;-80
2024/01/06 05:15:49;;;;;;;16.77;10.13;;;6.40;99.90;;;;;;5058797;28;20444;-82
2024/01/06 05:18:16;;;;;;;19.73;11.03;;;6.50;99.90;;;;;;5063110;28;20498;-82
2024/01/06 05:20:43;;;;;;;15.50;10.80;;;6.40;99.90;;;;;;5067134;28;20455;-81
2024/01/06 05:23:10;;;;;;;15.40;10.07;;;6.50;99.90;;;;;;5054221;28;20495;-81
2024/01/06 05:25:37;;;;;;;14.70;9.23;;;6.50;99.90;;;;;;5058856;28;20580;-81
2024/01/06 05:28:04;;;;;;;13.87;8.70;;;6.50;99.90;;;;;;5058143;28;20466;-82
2024/01/06 05:30:30;;;;;;;16.20;9.77;;;6.50;99.90;;;;;;5057332;28;20535;-80
2024/01/06 05:32:58;;;;;;;15.43;10.43;;;6.40;99.90;;;;;;5055540;28;20547;-81
2024/01/06 05:35:26;;;;;;;15.70;9.97;;;6.40;99.90;;;;;;5068049;28;20447;-82
2024/01/06 05:37:52;;;;;;;15.37;8.93;;;6.40;99.90;;;;;;5066005;28;20463;-82
2024/01/06 05:40:19;;;;;;;15.60;9.50;;;6.50;99.90;;;;;;5059270;28;20452;-81
2024/01/06 05:42:46;;;;;;;13.70;9.10;;;6.50;99.90;;;;;;5062374;28;20475;-82
2024/01/06 05:45:13;;;;;;;18.43;10.17;;;6.50;99.90;;;;;;5058681;28;20959;-82
2024/01/06 05:47:40;;;;;;;15.30;10.13;;;6.60;99.90;;;;;;5065531;28;20456;-81
2024/01/06 05:50:10;;;;;;;12.10;8.67;;;6.50;99.90;;;;;;5066053;28;20547;-82
2024/01/06 05:52:36;;;;;;;16.83;9.67;;;6.50;99.90;;;;;;5057311;28;20483;-81
2024/01/06 05:55:05;;;;;;;14.07;9.97;;;6.50;99.90;;;;;;5057810;28;20459;-83
2024/01/06 05:57:32;;;;;;;13.30;8.60;;;6.50;99.90;;;;;;5058211;28;20452;-82
2024/01/06 05:59:58;;;;;;;14.90;10.20;;;6.50;99.90;;;;;;5063200;28;20453;-82
2024/01/06 06:02:25;;;;;;;15.57;9.70;;;6.50;99.90;;;;;;5060154;28;20477;-82
2024/01/06 06:04:52;;;;;;;13.27;9.20;;;6.50;99.90;;;;;;5061988;28;20975;-80
2024/01/06 06:07:21;;;;;;;16.07;9.40;;;6.60;99.90;;;;;;5062349;28;20502;-80
2024/01/06 06:09:48;;;;;;;13.93;9.30;;;6.60;99.90;;;;;;5060033;28;20998;-81
2024/01/06 06:12:15;;;;;;;17.33;10.30;;;6.60;99.90;;;;;;5060051;28;20508;-81
2024/01/06 06:14:41;;;;;;;15.30;9.20;;;6.60;99.90;;;;;;5056711;28;20480;-82
2024/01/06 06:17:08;;;;;;;12.90;8.67;;;6.70;99.90;;;;;;5059607;28;20464;-80
2024/01/06 06:19:35;;;;;;;15.00;9.90;;;6.60;99.90;;;;;;5062115;28;20539;-81
2024/01/06 06:22:02;;;;;;;11.40;7.37;;;6.50;99.90;;;;;;5063145;28;20484;-82
2024/01/06 06:24:30;;;;;;;10.60;7.30;;;6.60;99.90;;;;;;5057179;28;20461;-82
2024/01/06 06:26:57;;;;;;;13.50;8.40;;;6.60;99.90;;;;;;5056791;28;20571;-81
2024/01/06 06:29:24;;;;;;;13.20;9.17;;;6.60;99.90;;;;;;5056435;28;20555;-81
2024/01/06 06:31:51;;;;;;;12.10;8.37;;;6.60;99.90;;;;;;5056548;28;20477;-81
2024/01/06 06:34:18;;;;;;;11.27;8.00;;;6.60;99.90;;;;;;5050193;28;20537;-81
2024/01/06 06:36:45;;;;;;;14.97;9.93;;;6.70;99.90;;;;;;5055923;28;20455;-82
2024/01/06 06:39:12;;;;;;;15.10;9.40;;;6.70;99.90;;;;;;5049475;28;20451;-81
2024/01/06 06:41:40;;;;;;;13.77;9.20;;;6.70;99.90;;;;;;5053437;28;20478;-81
2024/01/06 06:44:07;;;;;;;14.97;8.97;;;6.60;99.90;;;;;;5054712;28;20542;-81
2024/01/06 06:46:34;;;;;;;15.67;10.00;;;6.60;99.90;;;;;;5056257;28;20529;-82
2024/01/06 06:49:01;;;;;;;13.50;9.20;;;6.40;99.90;;;;;;5057052;28;20454;-82
2024/01/06 06:51:28;;;;;;;14.27;9.60;;;6.40;99.90;;;;;;5057000;28;20463;-81
2024/01/06 06:53:55;;;;;;;13.97;8.97;;;6.40;99.90;;;;;;5063886;28;20535;-81
2024/01/06 06:56:22;;;;;;;12.40;8.63;;;6.30;99.90;;;;;;5053417;28;20448;-82
2024/01/06 06:58:52;;;;;;;17.37;10.37;;;6.30;99.90;;;;;;5057022;28;20965;-81
2024/01/06 07:01:19;;;;;;;16.33;10.00;;;6.40;99.90;;;;;;5048137;28;20945;-80
2024/01/06 07:03:46;;;;;;;16.57;10.37;;;6.30;99.90;;;;;;5056582;28;20455;-82
2024/01/06 07:06:13;;;;;;;14.60;9.30;;;6.40;99.90;;;;;;5058309;28;20553;-82
2024/01/06 07:08:41;;;;;;;13.27;9.10;;;6.40;99.90;;;;;;5059002;28;20524;-81
2024/01/06 07:11:08;;;;;;;14.87;10.07;;;6.50;99.90;;;;;;5058212;28;20456;-80
2024/01/06 07:13:35;;;;;;;15.83;10.30;;;6.40;99.90;;;;;;5056709;28;20559;-80
2024/01/06 07:16:04;;;;;;;14.47;9.23;;;6.30;99.90;;;;;;5049728;28;20455;-81
2024/01/06 07:18:31;;;;;;;15.00;8.93;;;6.30;99.90;;;;;;5058720;28;20476;-79
2024/01/06 07:20:58;;;;;;;14.53;9.80;;;6.20;99.90;;;;;;5055794;28;20460;-81
2024/01/06 07:23:24;;;;;;;16.67;9.40;;;6.30;99.90;;;;;;5049192;28;20969;-79
2024/01/06 07:25:51;;;;;;;16.93;10.93;;;6.30;99.90;;;;;;5053286;28;20540;-81
2024/01/06 07:28:18;;;;;;;17.10;11.17;;;6.10;99.90;;;;;;5056673;28;20462;-80
2024/01/06 07:30:45;;;;;;;16.63;11.53;;;6.10;99.90;;;;;;5058372;28;20457;-79
2024/01/06 07:33:13;;;;;;;17.70;11.80;;;6.10;99.90;;;;;;5059307;28;20467;-79
2024/01/06 07:35:43;;;;;;;21.00;13.10;;;6.10;99.90;;;;;;5053528;28;20527;-79
2024/01/06 07:38:10;;;;;;;20.40;12.13;;;6.00;99.90;;;;;;5057060;28;20444;-81
2024/01/06 07:40:37;;;;;;;18.43;9.93;;;5.90;99.90;;;;;;5055621;28;20901;-81
2024/01/06 07:43:04;;;;;;;20.50;12.60;;;5.80;99.90;;;;;;5050609;28;20583;-80
2024/01/06 07:45:31;;;;;;;25.63;12.20;;;5.80;99.90;;;;;;5055672;28;20506;-80
2024/01/06 07:48:01;;;;;;;20.43;11.40;;;5.80;99.90;;;;;;5053225;28;20483;-81
2024/01/06 07:50:30;;;;;;;19.00;11.27;;;5.70;99.90;;;;;;5051327;28;20910;-81
2024/01/06 07:52:57;;;;;;;22.20;13.37;;;5.80;99.90;;;;;;5051028;28;20558;-81
2024/01/06 07:55:26;;;;;;;20.43;12.50;;;5.80;99.90;;;;;;5051989;28;20449;-81
2024/01/06 07:57:53;;;;;;;23.00;12.07;;;5.90;99.90;;;;;;5057442;28;20485;-82
2024/01/06 08:00:20;;;;;;;26.03;12.43;;;5.80;99.90;;;;;;5061426;28;20444;-80
2024/01/06 08:02:47;;;;;;;24.77;13.37;;;5.70;99.90;;;;;;5061904;28;21037;-81
2024/01/06 08:05:14;;;;;;;22.27;13.10;;;5.80;99.90;;;;;;5062399;28;20489;-80
2024/01/06 08:07:42;;;;;;;21.83;11.20;;;5.70;99.90;;;;;;5073890;28;20490;-80
2024/01/06 08:10:09;;;;;;;21.33;11.47;;;5.70;99.90;;;;;;5080286;28;20500;-79
2024/01/06 08:12:37;;;;;;;23.30;12.47;;;5.70;99.90;;;;;;5065001;28;20472;-80
2024/01/06 08:15:04;;;;;;;19.30;12.00;;;5.60;99.90;;;;;;5053231;28;20545;-80
2024/01/06 08:17:31;;;;;;;14.00;9.47;;;5.60;99.90;;;;;;5049170;28;20451;-81
2024/01/06 08:19:58;;;;;;;18.70;10.93;;;5.60;99.90;;;;;;5057517;28;20450;-81
2024/01/06 08:22:25;;;;;;;20.50;11.00;;;5.60;99.90;;;;;;5048775;28;20486;-81
2024/01/06 08:24:53;;;;;;;19.20;10.67;;;5.60;99.90;;;;;;5056333;28;20898;-81
2024/01/06 08:27:21;;;;;;;16.40;10.10;;;5.60;99.90;;;;;;5057228;28;20493;-81
2024/01/06 08:29:47;;;;;;;20.43;11.40;;;5.70;99.90;;;;;;5056972;28;20459;-81
2024/01/06 08:32:14;;;;;;;19.00;12.23;;;5.70;99.90;;;;;;5072026;28;20493;-80
2024/01/06 08:34:41;;;;;;;15.97;9.80;;;5.70;99.90;;;;;;5069855;28;20829;-80
2024/01/06 08:37:08;;;;;;;22.97;11.60;;;5.70;99.90;;;;;;5069612;28;20451;-81
2024/01/06 08:39:35;;;;;;;20.77;11.93;;;5.70;99.90;;;;;;5064874;28;20998;-82
2024/01/06 08:42:03;;;;;;;19.47;11.40;;;5.60;99.90;;;;;;5062690;28;20478;-81
2024/01/06 08:44:30;;;;;;;20.40;12.17;;;5.70;99.90;;;;;;5063557;28;20455;-82
2024/01/06 08:46:57;;;;;;;18.37;11.43;;;5.60;99.90;;;;;;5059561;28;21012;-79
2024/01/06 08:49:24;;;;;;;22.00;12.40;;;5.60;99.90;;;;;;5070677;28;20831;-80
2024/01/06 08:51:51;;;;;;;21.67;11.73;;;5.60;99.90;;;;;;5066220;28;20475;-81
2024/01/06 08:54:17;;;;;;;22.83;11.53;;;5.60;99.90;;;;;;5061606;28;20454;-81
2024/01/06 08:56:44;;;;;;;16.40;9.97;;;5.50;99.90;;;;;;5062935;28;20463;-81
2024/01/06 08:59:12;;;;;;;20.30;11.27;;;5.60;99.90;;;;;;5063007;28;20457;-81
2024/01/06 09:01:39;;;;;;;26.27;13.67;;;5.70;99.90;;;;;;5061781;28;20538;-80
2024/01/06 09:04:07;;;;;;;23.03;12.87;;;5.50;99.90;;;;;;5061712;28;20813;-80
2024/01/06 09:06:34;;;;;;;18.40;10.07;;;5.50;99.90;;;;;;5060964;28;20483;-81
2024/01/06 09:09:00;;;;;;;24.13;11.00;;;5.50;99.90;;;;;;5062696;28;20463;-80
2024/01/06 09:11:27;;;;;;;19.57;10.87;;;5.40;99.90;;;;;;5064651;28;20458;-81
2024/01/06 09:13:54;;;;;;;19.00;10.30;;;5.30;99.90;;;;;;5063313;28;20493;-79
2024/01/06 09:16:22;;;;;;;19.23;10.97;;;5.20;99.90;;;;;;5062759;28;20836;-79
2024/01/06 09:18:49;;;;;;;14.00;8.37;;;5.30;99.90;;;;;;5054313;28;20542;-80
2024/01/06 09:21:17;;;;;;;14.30;9.53;;;5.30;99.90;;;;;;5050462;28;20456;-80
2024/01/06 09:23:44;;;;;;;14.50;8.30;;;5.20;99.90;;;;;;5054487;28;20493;-80
2024/01/06 09:26:11;;;;;;;21.40;10.20;;;5.30;99.90;;;;;;5055512;28;20459;-80
2024/01/06 09:28:37;;;;;;;16.37;7.97;;;5.30;99.90;;;;;;5053920;28;20485;-80
2024/01/06 09:31:04;;;;;;;16.50;8.77;;;5.30;99.90;;;;;;5054079;28;20459;-79
2024/01/06 09:33:36;;;;;;;13.60;7.80;;;5.20;99.90;;;;;;5059886;28;20485;-80
2024/01/06 09:36:03;;;;;;;13.47;7.80;;;5.10;99.90;;;;;;5054761;28;20545;-80
2024/01/06 09:38:30;;;;;;;12.87;7.00;;;5.10;99.90;;;;;;5054086;28;20464;-82
2024/01/06 09:40:58;;;;;;;11.77;6.50;;;5.30;99.90;;;;;;5054086;28;20450;-80
2024/01/06 09:43:27;;;;;;;10.17;7.20;;;5.30;99.90;;;;;;5062839;28;20471;-80
2024/01/06 09:46:02;;;;;;;13.50;7.47;;;5.20;99.90;;;;;;5054227;28;20520;-81
2024/01/06 09:48:31;;;;;;;11.47;6.53;;;5.30;99.90;;;;;;5055297;28;20576;-80
2024/01/06 09:51:04;;;;;;;11.50;7.57;;;5.30;99.90;;;;;;5052425;28;20455;-82
2024/01/06 09:53:36;;;;;;;11.50;6.53;;;5.50;99.90;;;;;;5051690;28;20536;-80
2024/01/06 09:56:04;;;;;;;9.80;6.47;;;5.50;99.90;;;;;;5054268;28;20948;-81
2024/01/06 09:58:34;;;;;;;11.10;6.23;;;5.60;99.90;;;;;;5053986;28;20543;-79
2024/01/06 10:01:02;;;;;;;15.17;8.37;;;5.40;99.90;;;;;;5053818;28;20970;-78
2024/01/06 10:03:29;;;;;;;9.53;6.63;;;5.40;99.90;;;;;;5047973;28;20491;-79
2024/01/06 10:06:00;;;;;;;6.73;5.40;;;5.50;99.90;;;;;;5061702;28;20469;-78
2024/01/06 10:08:28;;;;;;;8.97;6.10;;;5.50;99.90;;;;;;5060496;28;20490;-77
2024/01/06 10:10:55;;;;;;;9.40;5.57;;;5.50;99.90;;;;;;5070394;28;20996;-79
2024/01/06 10:13:23;;;;;;;8.93;5.60;;;5.60;99.90;;;;;;5060356;28;20470;-79
2024/01/06 10:15:51;;;;;;;8.57;5.40;;;5.60;99.90;;;;;;5067850;28;20464;-79
2024/01/06 10:18:19;;;;;;;9.87;5.17;;;5.70;99.90;;;;;;5057569;28;20536;-80
2024/01/06 10:20:48;;;;;;;7.37;5.50;;;5.70;99.90;;;;;;5045767;28;20558;-80
2024/01/06 10:23:15;;;;;;;9.27;5.90;;;5.60;99.90;;;;;;5054621;28;20494;-79
2024/01/06 10:25:43;;;;;;;12.47;6.20;;;5.60;99.90;;;;;;5057401;28;20535;-79
2024/01/06 10:28:13;;;;;;;7.73;6.07;;;5.60;99.90;;;;;;5059014;28;20498;-79
2024/01/06 10:30:40;;;;;;;9.90;6.60;;;5.60;99.90;;;;;;5059832;28;20477;-80
2024/01/06 10:33:09;;;;;;;11.97;6.90;;;5.60;99.90;;;;;;5065760;28;21009;-79
2024/01/06 10:35:36;;;;;;;9.30;7.47;;;5.40;99.90;;;;;;5067334;28;20464;-80
2024/01/06 10:38:04;;;;;;;9.87;7.57;;;5.40;99.90;;;;;;5070327;28;20459;-80
2024/01/06 10:40:31;;;;;;;10.60;7.03;;;5.40;99.90;;;;;;5067695;28;20458;-80
2024/01/06 10:43:00;;;;;;;11.10;6.70;;;5.50;99.90;;;;;;5058158;28;20478;-80
2024/01/06 10:45:30;;;;;;;10.40;7.27;;;5.60;99.90;;;;;;5056721;28;20468;-80
2024/01/06 10:47:58;;;;;;;10.30;7.97;;;5.50;99.90;;;;;;5055258;28;20488;-78
2024/01/06 10:50:26;;;;;;;15.67;8.90;;;5.50;99.90;;;;;;5056594;28;20451;-80
2024/01/06 10:52:56;;;;;;;11.60;7.40;;;5.60;99.90;;;;;;5059522;28;20561;-80
2024/01/06 10:55:23;;;;;;;11.70;8.20;;;5.40;99.90;;;;;;5052966;28;20452;-81
2024/01/06 10:57:52;;;;;;;10.50;6.23;;;5.20;99.90;;;;;;5054668;28;20547;-80
2024/01/06 11:00:21;;;;;;;11.20;6.73;;;5.30;99.90;;;;;;5054837;28;21017;-80
2024/01/06 11:02:53;;;;;;;11.67;6.83;;;5.10;99.90;;;;;;5049122;28;20489;-80
2024/01/06 11:05:21;;;;;;;12.87;8.00;;;5.20;99.90;;;;;;5049810;28;20467;-78
2024/01/06 11:07:51;;;;;;;15.00;8.40;;;5.00;99.90;;;;;;5049111;28;20483;-79
2024/01/06 11:10:20;;;;;;;13.07;7.47;;;5.10;99.90;;;;;;5052527;28;20495;-80
2024/01/06 11:13:06;;;;;;;12.80;7.70;;;5.20;99.90;;;;;;5044671;28;20985;-80
2024/01/06 11:15:45;;;;;;;11.37;7.73;;;5.30;99.90;;;;;;5053086;28;20453;-79
2024/01/06 11:18:33;;;;;;;12.17;7.13;;;5.30;99.90;;;;;;5055184;28;20451;-80
2024/01/06 11:21:24;;;;;;;15.97;8.67;;;5.20;99.90;;;;;;5052245;28;20456;-80
2024/01/06 11:24:20;;;;;;;12.63;7.63;;;5.30;99.90;;;;;;5047782;28;20513;-80
2024/01/06 11:26:50;;;;;;;13.70;10.03;;;5.40;99.90;;;;;;5052289;28;20450;-81
2024/01/06 11:29:17;;;;;;;12.80;7.97;;;5.40;99.90;;;;;;5052131;28;20550;-80
2024/01/06 11:32:17;;;;;;;19.57;9.73;;;5.40;99.90;;;;;;5051753;28;20474;-80
2024/01/06 11:34:48;;;;;;;16.43;10.53;;;5.30;99.90;;;;;;5051631;28;20463;-81
2024/01/06 11:37:17;;;;;;;18.43;11.17;;;5.30;99.90;;;;;;5060643;28;20462;-80
2024/01/06 11:39:45;;;;;;;15.50;10.23;;;5.20;99.90;;;;;;5051140;28;20494;-80
2024/01/06 11:42:12;;;;;;;16.30;9.57;;;5.00;99.90;;;;;;5053746;28;20469;-81
2024/01/06 11:44:40;;;;;;;14.73;8.13;;;4.90;99.90;;;;;;5053387;28;20450;-80
2024/01/06 11:47:09;;;;;;;13.20;8.43;;;4.90;99.90;;;;;;5052733;28;20451;-79
2024/01/06 11:49:36;;;;;;;15.70;9.27;;;5.00;99.90;;;;;;5052311;28;20835;-79
2024/01/06 11:52:03;;;;;;;15.97;9.33;;;5.10;99.90;;;;;;5052170;28;20471;-79
2024/01/06 11:54:31;;;;;;;14.27;8.17;;;5.10;99.90;;;;;;5052398;28;20989;-79
2024/01/06 11:56:58;;;;;;;13.30;8.37;;;5.10;99.90;;;;;;5053569;28;20463;-79
2024/01/06 11:59:25;;;;;;;14.10;8.00;;;5.20;99.90;;;;;;5053104;28;20552;-79
2024/01/06 12:01:52;;;;;;;12.20;7.97;;;5.30;99.90;;;;;;5052887;28;20992;-79
2024/01/06 12:04:22;;;;;;;14.93;7.93;;;5.30;99.90;;;;;;5053129;28;20465;-79
2024/01/06 12:06:49;;;;;;;13.03;8.70;;;5.30;99.90;;;;;;5047551;28;20468;-77
2024/01/06 12:09:19;;;;;;;13.93;8.63;;;5.30;99.90;;;;;;5057376;28;21045;-79
2024/01/06 12:11:46;;;;;;;14.03;8.60;;;5.20;99.90;;;;;;5056635;28;20995;-78
2024/01/06 12:14:13;;;;;;;17.10;10.83;;;5.10;99.90;;;;;;5055898;28;20456;-78
2024/01/06 12:16:40;;;;;;;18.02;11.75;;;5.00;99.90;;;;;;5055440;28;20451;-77
2024/01/06 12:19:07;;;;;;;14.77;8.80;;;5.10;99.90;;;;;;5053766;28;20575;-80
2024/01/06 12:21:37;;;;;;;15.27;8.73;;;5.10;99.90;;;;;;5056427;28;20912;-79
2024/01/06 12:24:20;;;;;;;18.47;9.53;;;5.00;99.90;;;;;;5056103;28;21000;-79
2024/01/06 12:26:47;;;;;;;16.87;9.50;;;4.90;99.90;;;;;;5050640;28;20527;-78
2024/01/06 12:29:14;;;;;;;16.30;8.73;;;4.90;99.90;;;;;;5055332;28;20497;-79
2024/01/06 12:31:41;;;;;;;16.00;9.13;;;4.90;99.90;;;;;;5055109;28;20480;-79
2024/01/06 12:34:08;;;;;;;20.97;11.20;;;5.00;99.90;;;;;;5055629;28;20986;-79
2024/01/06 12:36:37;;;;;;;20.07;10.57;;;4.90;99.90;;;;;;5049825;28;20450;-79
2024/01/06 12:39:04;;;;;;;30.33;12.83;;;4.70;99.90;;;;;;5054992;28;20972;-79
2024/01/06 12:41:33;;;;;;;21.97;13.40;;;4.70;99.90;;;;;;5048057;28;20525;-79
2024/01/06 12:44:00;;;;;;;19.97;11.83;;;4.70;99.90;;;;;;5055978;28;20459;-79
2024/01/06 12:46:27;;;;;;;23.00;12.20;;;4.70;99.90;;;;;;5055717;28;20549;-79